createdAt,value
2019-05-05T00:00:37.644Z,4.04
2019-05-05T00:01:39.218Z,4.05
2019-05-05T00:02:39.023Z,3.96
2019-05-05T00:03:39.028Z,3.98
2019-05-05T00:04:39.565Z,4
2019-05-05T00:05:37.813Z,3.98
2019-05-05T00:06:39.034Z,3.91
2019-05-05T00:07:39.298Z,3.98
2019-05-05T00:08:37.607Z,3.96
2019-05-05T00:09:39.412Z,3.96
2019-05-05T00:10:39.454Z,3.91
2019-05-05T00:11:37.631Z,3.94
2019-05-05T00:12:39.101Z,3.93
2019-05-05T00:13:39.323Z,3.91
2019-05-05T00:14:37.535Z,3.84
2019-05-05T00:15:39.217Z,3.87
2019-05-05T00:16:37.515Z,3.88
2019-05-05T00:17:39.025Z,3.86
2019-05-05T00:18:39.357Z,3.93
2019-05-05T00:19:38.753Z,3.93
2019-05-05T00:20:39.110Z,3.93
2019-05-05T00:21:39.040Z,3.9
2019-05-05T00:22:37.462Z,3.86
2019-05-05T00:23:39.209Z,3.84
2019-05-05T00:24:37.549Z,3.78
2019-05-05T00:25:39.075Z,3.84
2019-05-05T00:26:37.377Z,3.75
2019-05-05T00:27:37.144Z,3.87
2019-05-05T00:28:37.814Z,3.84
2019-05-05T00:29:37.172Z,3.86
2019-05-05T00:30:39.023Z,3.84
2019-05-05T00:31:37.424Z,3.75
2019-05-05T00:32:37.329Z,3.87
2019-05-05T00:33:39.094Z,3.75
2019-05-05T00:34:37.475Z,3.83
2019-05-05T00:35:36.941Z,3.75
2019-05-05T00:36:37.662Z,3.78
2019-05-05T00:37:37.033Z,3.78
2019-05-05T00:38:37.669Z,3.72
2019-05-05T00:39:38.991Z,3.75
2019-05-05T00:40:37.739Z,3.69
2019-05-05T00:41:37.055Z,3.73
2019-05-05T00:42:37.671Z,3.73
2019-05-05T00:43:37.025Z,3.73
2019-05-05T00:44:37.687Z,3.73
2019-05-05T00:45:36.894Z,3.75
2019-05-05T00:46:37.628Z,3.73
2019-05-05T00:47:36.889Z,3.69
2019-05-05T00:48:37.486Z,3.72
2019-05-05T00:49:51.886Z,3.69
2019-05-05T00:50:36.805Z,3.75
2019-05-05T00:51:37.250Z,3.73
2019-05-05T00:52:37.620Z,3.58
2019-05-05T00:53:38.427Z,3.6
2019-05-05T00:54:37.201Z,3.66
2019-05-05T00:55:37.420Z,3.62
2019-05-05T00:56:36.735Z,3.65
2019-05-05T00:57:37.223Z,3.66
2019-05-05T00:58:37.697Z,3.65
2019-05-05T00:59:37.204Z,3.65
2019-05-05T01:00:37.360Z,3.58
2019-05-05T01:01:36.728Z,3.54
2019-05-05T01:02:36.822Z,3.58
2019-05-05T01:03:37.222Z,3.51
2019-05-05T01:04:37.635Z,3.5
2019-05-05T01:05:36.822Z,3.51
2019-05-05T01:06:36.977Z,3.51
2019-05-05T01:07:37.469Z,3.48
2019-05-05T01:08:37.752Z,3.5
2019-05-05T01:09:36.888Z,3.51
2019-05-05T01:10:37.745Z,3.55
2019-05-05T01:11:37.965Z,3.42
2019-05-05T01:12:37.308Z,3.48
2019-05-05T01:13:37.616Z,3.4
2019-05-05T01:14:36.699Z,3.33
2019-05-05T01:15:36.960Z,3.42
2019-05-05T01:16:37.588Z,3.43
2019-05-05T01:17:36.974Z,3.31
2019-05-05T01:18:37.591Z,3.43
2019-05-05T01:19:37.361Z,3.32
2019-05-05T01:20:36.813Z,3.33
2019-05-05T01:21:37.304Z,3.35
2019-05-05T01:22:36.632Z,3.28
2019-05-05T01:23:37.396Z,3.32
2019-05-05T01:24:36.676Z,3.29
2019-05-05T01:25:36.911Z,3.35
2019-05-05T01:26:37.799Z,3.31
2019-05-05T01:27:37.162Z,3.33
2019-05-05T01:28:37.844Z,3.33
2019-05-05T01:29:37.098Z,3.35
2019-05-05T01:30:37.482Z,3.36
2019-05-05T01:31:37.140Z,3.28
2019-05-05T01:32:37.531Z,3.33
2019-05-05T01:33:36.804Z,3.29
2019-05-05T01:34:37.286Z,3.28
2019-05-05T01:35:36.656Z,3.35
2019-05-05T01:36:36.964Z,3.28
2019-05-05T01:37:37.291Z,3.26
2019-05-05T01:38:44.639Z,3.33
2019-05-05T01:39:37.024Z,3.23
2019-05-05T01:40:37.746Z,3.31
2019-05-05T01:41:38.580Z,3.26
2019-05-05T01:42:37.696Z,3.35
2019-05-05T01:43:37.054Z,3.26
2019-05-05T01:44:37.639Z,3.33
2019-05-05T01:45:37.158Z,3.26
2019-05-05T01:46:37.775Z,3.21
2019-05-05T01:47:37.108Z,3.05
2019-05-05T01:48:37.549Z,3.14
2019-05-05T01:49:36.933Z,3.08
2019-05-05T01:50:37.391Z,3.03
2019-05-05T01:51:37.796Z,2.93
2019-05-05T01:52:36.876Z,2.9
2019-05-05T01:53:37.445Z,2.93
2019-05-05T01:54:37.706Z,2.87
2019-05-05T01:55:37.138Z,2.77
2019-05-05T01:56:37.678Z,2.87
2019-05-05T01:57:36.923Z,2.81
2019-05-05T01:58:37.295Z,2.84
2019-05-05T01:59:37.680Z,2.78
2019-05-05T02:00:37.237Z,2.78
2019-05-05T02:01:37.583Z,2.74
2019-05-05T02:02:36.694Z,2.69
2019-05-05T02:03:37.452Z,2.72
2019-05-05T02:04:36.720Z,2.67
2019-05-05T02:05:37.307Z,2.75
2019-05-05T02:06:37.474Z,2.61
2019-05-05T02:07:36.666Z,2.59
2019-05-05T02:08:37.405Z,2.57
2019-05-05T02:09:37.775Z,2.59
2019-05-05T02:10:37.324Z,2.56
2019-05-05T02:11:37.441Z,2.63
2019-05-05T02:12:37.657Z,2.59
2019-05-05T02:13:37.085Z,2.57
2019-05-05T02:14:37.584Z,2.66
2019-05-05T02:15:36.810Z,2.6
2019-05-05T02:16:37.143Z,2.63
2019-05-05T02:17:37.605Z,2.57
2019-05-05T02:18:37.022Z,2.56
2019-05-05T02:19:37.346Z,2.56
2019-05-05T02:20:36.674Z,2.52
2019-05-05T02:21:37.606Z,2.48
2019-05-05T02:22:35.693Z,2.54
2019-05-05T02:23:37.482Z,2.6
2019-05-05T02:24:35.452Z,2.53
2019-05-05T02:25:37.011Z,2.6
2019-05-05T02:26:37.401Z,2.48
2019-05-05T02:27:36.781Z,2.53
2019-05-05T02:28:37.077Z,2.56
2019-05-05T02:29:35.370Z,2.59
2019-05-05T02:30:38.327Z,2.46
2019-05-05T02:31:38.444Z,2.53
2019-05-05T02:32:38.443Z,2.41
2019-05-05T02:33:37.836Z,2.39
2019-05-05T02:34:35.821Z,2.48
2019-05-05T02:35:37.721Z,2.41
2019-05-05T02:36:37.892Z,2.49
2019-05-05T02:37:38.133Z,2.39
2019-05-05T02:38:37.988Z,2.38
2019-05-05T02:39:45.729Z,2.38
2019-05-05T02:40:37.442Z,2.38
2019-05-05T02:41:37.277Z,2.28
2019-05-05T02:42:37.821Z,2.31
2019-05-05T02:43:36.966Z,2.34
2019-05-05T02:44:37.174Z,2.28
2019-05-05T02:45:37.574Z,2.27
2019-05-05T02:46:38.117Z,2.23
2019-05-05T02:47:37.406Z,2.16
2019-05-05T02:48:37.829Z,2.17
2019-05-05T02:49:37.657Z,2.18
2019-05-05T02:51:06.627Z,2.1
2019-05-05T02:51:37.860Z,2.21
2019-05-05T02:52:37.114Z,2.16
2019-05-05T02:53:36.475Z,2.12
2019-05-05T02:54:36.293Z,2.12
2019-05-05T02:55:37.554Z,2.1
2019-05-05T02:56:36.598Z,2.18
2019-05-05T02:57:36.910Z,2.07
2019-05-05T02:58:36.402Z,2.06
2019-05-05T02:59:35.248Z,2.05
2019-05-05T03:00:36.805Z,2.07
2019-05-05T03:01:36.517Z,2.1
2019-05-05T03:02:35.259Z,2.06
2019-05-05T03:03:36.706Z,2.07
2019-05-05T03:04:35.813Z,2.06
2019-05-05T03:05:36.427Z,2.06
2019-05-05T03:06:36.652Z,2.03
2019-05-05T03:07:36.783Z,2.09
2019-05-05T03:08:35.957Z,2.05
2019-05-05T03:09:34.718Z,1.98
2019-05-05T03:10:36.421Z,2.05
2019-05-05T03:11:36.712Z,2.06
2019-05-05T03:12:36.985Z,2.05
2019-05-05T03:13:36.151Z,1.99
2019-05-05T03:14:36.479Z,1.93
2019-05-05T03:15:36.057Z,2.02
2019-05-05T03:16:36.481Z,1.93
2019-05-05T03:17:36.462Z,1.91
2019-05-05T03:18:36.201Z,1.87
2019-05-05T03:19:36.261Z,1.91
2019-05-05T03:20:34.430Z,1.9
2019-05-05T03:21:35.931Z,1.86
2019-05-05T03:22:36.425Z,1.9
2019-05-05T03:23:35.869Z,1.91
2019-05-05T03:24:36.479Z,1.9
2019-05-05T03:25:35.814Z,1.93
2019-05-05T03:26:36.347Z,1.9
2019-05-05T03:27:36.456Z,1.88
2019-05-05T03:28:34.462Z,1.87
2019-05-05T03:29:36.032Z,1.95
2019-05-05T03:30:37.901Z,1.93
2019-05-05T03:31:37.502Z,1.9
2019-05-05T03:32:35.939Z,1.83
2019-05-05T03:33:37.537Z,1.88
2019-05-05T03:34:34.433Z,1.88
2019-05-05T03:35:34.632Z,1.95
2019-05-05T03:36:36.245Z,1.91
2019-05-05T03:37:34.406Z,1.91
2019-05-05T03:38:36.098Z,1.9
2019-05-05T03:39:36.412Z,1.9
2019-05-05T03:40:34.423Z,1.86
2019-05-05T03:41:34.479Z,1.88
2019-05-05T03:42:36.210Z,1.93
2019-05-05T03:43:34.322Z,1.91
2019-05-05T03:44:35.941Z,1.98
2019-05-05T03:45:34.219Z,1.91
2019-05-05T03:46:34.471Z,1.99
2019-05-05T03:47:36.076Z,2.02
2019-05-05T03:48:34.607Z,2.07
2019-05-05T03:49:36.137Z,2.05
2019-05-05T03:50:34.101Z,2.07
2019-05-05T03:51:34.472Z,2.05
2019-05-05T03:52:34.570Z,2.07
2019-05-05T03:53:33.858Z,2.12
2019-05-05T03:54:34.325Z,2.12
2019-05-05T03:55:34.459Z,2.21
2019-05-05T03:56:34.676Z,2.27
2019-05-05T03:57:33.956Z,2.3
2019-05-05T03:58:34.418Z,2.3
2019-05-05T03:59:35.895Z,2.28
2019-05-05T04:00:34.042Z,2.35
2019-05-05T04:01:34.583Z,2.35
2019-05-05T04:02:34.102Z,2.57
2019-05-05T04:03:34.204Z,2.72
2019-05-05T04:04:33.660Z,2.85
2019-05-05T04:05:34.092Z,2.99
2019-05-05T04:06:34.014Z,3.26
2019-05-05T04:07:35.792Z,3.28
2019-05-05T04:08:33.962Z,3.58
2019-05-05T04:09:34.508Z,3.84
2019-05-05T04:10:33.989Z,4.12
2019-05-05T04:11:33.870Z,4.24
2019-05-05T04:12:34.553Z,4.52
2019-05-05T04:13:34.431Z,4.77
2019-05-05T04:14:34.722Z,5.17
2019-05-05T04:15:33.773Z,5.27
2019-05-05T04:16:34.207Z,5.64
2019-05-05T04:17:33.745Z,5.86
2019-05-05T04:18:34.143Z,6.09
2019-05-05T04:19:34.238Z,6.33
2019-05-05T04:20:33.790Z,6.67
2019-05-05T04:21:39.311Z,6.95
2019-05-05T04:22:34.281Z,7.21
2019-05-05T04:23:33.554Z,7.4
2019-05-05T04:24:34.128Z,7.71
2019-05-05T04:25:34.910Z,8.05
2019-05-05T04:26:33.614Z,8.33
2019-05-05T04:27:34.260Z,8.55
2019-05-05T04:28:34.530Z,8.8
2019-05-05T04:29:34.435Z,9.13
2019-05-05T04:30:33.894Z,9.4
2019-05-05T04:31:34.515Z,9.66
2019-05-05T04:32:34.812Z,10.02
2019-05-05T04:33:34.126Z,10.22
2019-05-05T04:34:34.690Z,10.4
2019-05-05T04:35:33.928Z,10.81
2019-05-05T04:36:34.021Z,11.07
2019-05-05T04:37:34.114Z,11.29
2019-05-05T04:38:34.761Z,11.54
2019-05-05T04:39:34.254Z,11.83
2019-05-05T04:40:34.475Z,12.16
2019-05-05T04:41:33.747Z,12.38
2019-05-05T04:42:33.726Z,12.65
2019-05-05T04:43:33.820Z,12.86
2019-05-05T04:44:34.552Z,13.11
2019-05-05T04:45:34.651Z,13.17
2019-05-05T04:46:33.803Z,13.22
2019-05-05T04:47:34.247Z,13.36
2019-05-05T04:48:34.540Z,13.44
2019-05-05T04:49:33.945Z,13.62
2019-05-05T04:50:34.477Z,13.88
2019-05-05T04:51:50.359Z,14.09
2019-05-05T04:52:34.290Z,14.24
2019-05-05T04:53:34.632Z,14.45
2019-05-05T04:54:33.491Z,14.64
2019-05-05T04:55:33.726Z,14.78
2019-05-05T04:56:36.789Z,14.89
2019-05-05T04:57:35.258Z,15.17
2019-05-05T04:58:33.618Z,15.51
2019-05-05T04:59:33.974Z,15.6
2019-05-05T05:00:34.169Z,15.92
2019-05-05T05:01:33.643Z,16.08
2019-05-05T05:02:34.092Z,16.25
2019-05-05T05:03:34.603Z,16.63
2019-05-05T05:04:33.661Z,16.82
2019-05-05T05:05:33.716Z,17.04
2019-05-05T05:06:34.154Z,17.16
2019-05-05T05:07:34.443Z,17.4
2019-05-05T05:08:33.767Z,17.56
2019-05-05T05:09:34.138Z,17.78
2019-05-05T05:10:34.557Z,17.9
2019-05-05T05:11:33.542Z,18.12
2019-05-05T05:12:34.138Z,18.29
2019-05-05T05:13:34.713Z,18.41
2019-05-05T05:14:33.679Z,18.66
2019-05-05T05:15:34.012Z,18.85
2019-05-05T05:16:33.121Z,18.94
2019-05-05T05:17:33.797Z,19
2019-05-05T05:18:34.342Z,19.14
2019-05-05T05:19:33.549Z,19.16
2019-05-05T05:20:33.944Z,19.25
2019-05-05T05:21:34.203Z,19.29
2019-05-05T05:22:33.473Z,19.26
2019-05-05T05:23:36.517Z,19.29
2019-05-05T05:24:34.286Z,19.21
2019-05-05T05:25:34.613Z,19.26
2019-05-05T05:26:33.619Z,19.28
2019-05-05T05:27:33.641Z,19.33
2019-05-05T05:28:34.181Z,19.41
2019-05-05T05:29:34.506Z,19.51
2019-05-05T05:30:34.638Z,19.56
2019-05-05T05:31:33.701Z,19.51
2019-05-05T05:32:33.956Z,19.66
2019-05-05T05:33:34.400Z,19.68
2019-05-05T05:34:34.381Z,19.78
2019-05-05T05:35:33.629Z,19.88
2019-05-05T05:36:33.797Z,19.92
2019-05-05T05:37:34.252Z,19.94
2019-05-05T05:38:34.569Z,20.17
2019-05-05T05:39:33.620Z,20.29
2019-05-05T05:40:34.178Z,20.58
2019-05-05T05:41:34.380Z,20.79
2019-05-05T05:42:33.625Z,20.97
2019-05-05T05:43:33.516Z,21.16
2019-05-05T05:44:33.801Z,21.35
2019-05-05T05:45:34.267Z,21.49
2019-05-05T05:46:33.468Z,21.83
2019-05-05T05:47:33.819Z,21.96
2019-05-05T05:48:34.167Z,22.17
2019-05-05T05:49:34.596Z,22.33
2019-05-05T05:50:33.894Z,22.4
2019-05-05T05:51:34.086Z,22.47
2019-05-05T05:52:34.356Z,22.49
2019-05-05T05:53:34.839Z,22.61
2019-05-05T05:54:34.012Z,22.75
2019-05-05T05:55:34.250Z,22.9
2019-05-05T05:56:34.265Z,22.97
2019-05-05T05:57:34.543Z,23.16
2019-05-05T05:58:33.732Z,23.4
2019-05-05T05:59:33.933Z,23.53
2019-05-05T06:00:34.310Z,23.69
2019-05-05T06:01:34.530Z,23.83
2019-05-05T06:02:33.506Z,23.83
2019-05-05T06:03:33.884Z,23.83
2019-05-05T06:04:34.021Z,23.94
2019-05-05T06:05:34.265Z,24.1
2019-05-05T06:06:34.634Z,24.16
2019-05-05T06:07:33.580Z,24.28
2019-05-05T06:08:36.938Z,24.3
2019-05-05T06:09:34.404Z,24.43
2019-05-05T06:10:33.850Z,24.61
2019-05-05T06:11:34.397Z,24.77
2019-05-05T06:12:33.708Z,24.84
2019-05-05T06:13:33.600Z,24.81
2019-05-05T06:14:34.011Z,24.95
2019-05-05T06:15:33.710Z,25.08
2019-05-05T06:16:34.103Z,25.14
2019-05-05T06:17:34.295Z,25.13
2019-05-05T06:18:34.502Z,25.24
2019-05-05T06:19:33.713Z,25.38
2019-05-05T06:20:34.338Z,25.42
2019-05-05T06:21:33.836Z,25.54
2019-05-05T06:22:36.857Z,25.61
2019-05-05T06:23:34.360Z,25.73
2019-05-05T06:24:34.541Z,25.76
2019-05-05T06:25:34.168Z,25.75
2019-05-05T06:26:34.242Z,25.87
2019-05-05T06:27:34.167Z,26.01
2019-05-05T06:28:34.160Z,25.99
2019-05-05T06:29:34.465Z,26.1
2019-05-05T06:30:33.721Z,25.91
2019-05-05T06:31:34.122Z,25.9
2019-05-05T06:32:34.228Z,25.9
2019-05-05T06:33:34.697Z,25.88
2019-05-05T06:34:33.806Z,26.01
2019-05-05T06:35:33.880Z,25.85
2019-05-05T06:36:33.999Z,25.82
2019-05-05T06:37:34.230Z,25.83
2019-05-05T06:38:34.510Z,25.79
2019-05-05T06:39:33.587Z,25.76
2019-05-05T06:40:34.161Z,25.8
2019-05-05T06:41:34.171Z,25.97
2019-05-05T06:42:34.271Z,26.05
2019-05-05T06:43:34.770Z,26.02
2019-05-05T06:44:33.864Z,25.98
2019-05-05T06:45:34.277Z,25.95
2019-05-05T06:46:34.210Z,25.83
2019-05-05T06:47:33.965Z,25.72
2019-05-05T06:48:34.337Z,25.87
2019-05-05T06:49:36.957Z,25.95
2019-05-05T06:50:34.466Z,26.2
2019-05-05T06:51:33.620Z,26.39
2019-05-05T06:52:49.484Z,26.69
2019-05-05T06:53:34.133Z,26.87
2019-05-05T06:54:34.784Z,27.07
2019-05-05T06:55:34.040Z,27.1
2019-05-05T06:56:34.153Z,27.14
2019-05-05T06:57:34.279Z,27.37
2019-05-05T06:58:34.681Z,27.59
2019-05-05T06:59:34.881Z,27.78
2019-05-05T07:00:34.619Z,27.79
2019-05-05T07:01:33.827Z,28
2019-05-05T07:02:34.245Z,28.07
2019-05-05T07:03:35.928Z,28.24
2019-05-05T07:04:34.049Z,28.43
2019-05-05T07:05:34.058Z,28.68
2019-05-05T07:06:34.304Z,28.89
2019-05-05T07:07:34.226Z,29.09
2019-05-05T07:08:34.643Z,29.16
2019-05-05T07:09:35.949Z,28.9
2019-05-05T07:10:33.950Z,28.89
2019-05-05T07:11:34.239Z,28.54
2019-05-05T07:12:34.681Z,28.4
2019-05-05T07:13:33.979Z,28.54
2019-05-05T07:14:34.060Z,28.59
2019-05-05T07:15:34.252Z,28.85
2019-05-05T07:16:34.469Z,29.16
2019-05-05T07:17:33.934Z,29.41
2019-05-05T07:18:34.172Z,29.58
2019-05-05T07:19:34.420Z,29.83
2019-05-05T07:20:34.640Z,29.9
2019-05-05T07:21:34.292Z,29.85
2019-05-05T07:22:34.639Z,30.02
2019-05-05T07:23:34.265Z,30.2
2019-05-05T07:24:34.380Z,30.27
2019-05-05T07:25:48.475Z,29.95
